Aérodrome :
LOGIN :

S'inscrire | Disclaimer

   EN    FR    IT 

 










Légende :    VFR   VFR Marginal   IFR   IFR Intensif   IFR Très Intensif
Visi : 
Plafond : 
>= 8 km
>= 3000ft
5 à 8 km
1000 à 3000 ft
1500m à 5 km
500 à 1000 ft
800 à 1500m
200 à 500 ft
< 800m
< 200 ft
Symboles :   Orages  Brouillard  Fortes neiges  Fortes précipitations  Vent > 20 kt
SIGMETs :   Divers  Orages  Givrage  Turbulence  Onde Orograph.  Cendres Volcan.






- Altitude de l'aérodrome : 15 ft
- Code IATA : FCO


LIRF - Roma Leonardo da Vinci Fiumicino

DERNIER METAR :
  • 291650Z 31008KT 9000 NSC 12/10 Q1014 NOSIG

METARs EXPIRÉS :
  • 291620Z 31003KT CAVOK 13/10 Q1013 NOSIG
  • 291550Z 30005KT 9999 FEW035 15/09 Q1013 NOSIG
  • 291520Z 29004KT 260V320 9999 FEW030 15/09 Q1013 NOSIG
  • 291450Z 26004KT 230V300 9999 FEW025 15/09 Q1012 NOSIG
  • 291420Z 26005KT 230V300 9999 SCT025 15/09 Q1013 NOSIG

TAF TAF LIRF
Valide du 29 à 12h jusqu'au 30 à 18h UTC


291100Z 2912/3018 29014KT 9999 FEW040
BECMG 2916/2918 VRB05KT
BECMG 2918/2920 4000 BR
TEMPO 3002/3007 1200 BCFG
BECMG 3009/3011 16012KT 7000



MET'MAP, la Météo Aéronautique d'un coup d'oeil ! - Copyright ORBIFLY Décembre 2007 - Disclaimer

ORBIFLY MET'MAP TEAM :

Programmation & Développement : Alexandra Zaïnal
Sur une idée originale de : Baudouin d'Aumeries
Assistance à la programmation : Marc-Olivier Méhu
Soutien technique & logistique : Manuel Goepfert

Contact : metmap@orbifly.com




SOURCES & CREDITS :

   NOAA